Time;durP1;ratioP1;P1;durP2;ratioP2;P2;SDS_P1;SDS_P2;PMS_P1;PMS_P2;Temp;Humidity;BMP_temperature;BMP_pressure;BME280_temperature;BME280_humidity;BME280_pressure;Samples;Min_cycle;Max_cycle;Signal;HPM_P1;HPM_P2
2022/01/21 00:01:23;;;;;;;14.10;3.40;;;;;;;3.68;100.00;98926.19;5036570;28;20044;-56
2022/01/21 00:03:50;;;;;;;13.00;3.28;;;;;;;3.84;100.00;98916.72;5037691;28;20033;-55
2022/01/21 00:06:15;;;;;;;13.50;3.17;;;;;;;2.89;100.00;98914.78;5037069;28;20048;-56
2022/01/21 00:08:43;;;;;;;16.65;3.35;;;;;;;2.97;100.00;98918.22;5036692;28;20029;-56
2022/01/21 00:11:11;;;;;;;11.73;3.00;;;;;;;3.99;100.00;98924.47;5036192;28;20588;-56
2022/01/21 00:13:37;;;;;;;18.10;3.63;;;;;;;2.49;100.00;98914.56;5036494;28;20956;-58
2022/01/21 00:16:08;;;;;;;10.70;2.85;;;;;;;3.26;100.00;98920.91;5036253;28;20040;-56
2022/01/21 00:18:37;;;;;;;14.93;3.38;;;;;;;3.17;100.00;98923.47;5035488;28;20028;-59
2022/01/21 00:31:59;;;;;;;13.63;3.45;;;;;;;3.15;100.00;98930.34;5036368;28;20999;-56
2022/01/21 00:34:25;;;;;;;13.90;3.38;;;;;;;2.65;100.00;98930.97;5036700;28;20032;-58
2022/01/21 00:36:50;;;;;;;14.27;3.22;;;;;;;3.05;100.00;98934.59;5035711;28;20062;-58
2022/01/21 00:39:19;;;;;;;13.35;3.33;;;;;;;3.04;100.00;98940.59;5035765;28;20074;-58
2022/01/21 00:41:57;;;;;;;13.80;3.45;;;;;;;2.33;100.00;98934.19;5035199;28;20135;-56
2022/01/21 00:44:22;;;;;;;13.82;3.72;;;;;;;3.13;100.00;98946.66;5035763;28;20029;-56
2022/01/21 00:46:48;;;;;;;13.45;3.20;;;;;;;2.01;100.00;98945.09;5035948;28;20033;-59
2022/01/21 00:49:15;;;;;;;15.55;3.70;;;;;;;3.03;100.00;98940.59;5035773;28;20950;-58
2022/01/21 00:51:40;;;;;;;9.38;3.08;;;;;;;4.11;100.00;98959.75;5036394;28;20064;-55
2022/01/21 00:54:06;;;;;;;17.13;4.18;;;;;;;3.24;100.00;98966.47;5036557;28;20104;-56
2022/01/21 00:56:31;;;;;;;15.45;4.07;;;;;;;2.43;100.00;98966.03;5035815;28;20084;-58
2022/01/21 00:58:57;;;;;;;15.57;3.80;;;;;;;2.86;100.00;98969.72;5036494;28;20031;-56
2022/01/21 01:01:22;;;;;;;15.60;3.50;;;;;;;2.48;100.00;98980.66;5036248;28;20448;-55
2022/01/21 01:03:48;;;;;;;14.40;3.45;;;;;;;3.26;100.00;98985.38;5036700;28;20087;-56
2022/01/21 01:06:13;;;;;;;16.75;3.75;;;;;;;2.75;100.00;98984.25;5035831;28;20067;-58
2022/01/21 01:08:38;;;;;;;16.25;3.85;;;;;;;2.55;100.00;98980.69;5036225;28;20056;-58
2022/01/21 01:20:01;;;;;;;16.52;3.40;;;;;;;2.89;100.00;98992.06;5035943;28;20054;-57
2022/01/21 01:21:55;;;;;;;14.65;3.22;;;;;;;3.24;100.00;99004.28;5022065;28;20043;-57
2022/01/21 01:29:49;;;;;;;14.00;3.10;;;;;;;3.25;100.00;98999.13;5035955;28;20789;-56
2022/01/21 01:32:14;;;;;;;14.73;3.15;;;;;;;3.09;100.00;98999.91;5035169;28;20041;-58
2022/01/21 01:34:40;;;;;;;12.65;3.20;;;;;;;2.53;100.00;98997.84;5036598;28;20029;-56
2022/01/21 01:37:13;;;;;;;14.73;3.30;;;;;;;2.88;100.00;99004.06;5035739;28;20333;-56
2022/01/21 01:39:44;;;;;;;11.82;3.08;;;;;;;3.36;100.00;99006.91;5036097;28;20514;-58
2022/01/21 01:42:44;;;;;;;9.95;2.75;;;;;;;3.19;100.00;99017.13;5035812;28;20068;-56
2022/01/21 01:50:34;;;;;;;12.68;2.97;;;;;;;3.92;100.00;99031.19;5039375;28;20047;-57
2022/01/21 01:53:00;;;;;;;14.68;3.10;;;;;;;3.00;100.00;99028.22;5038280;28;20838;-57
2022/01/21 01:55:26;;;;;;;12.35;2.80;;;;;;;2.82;100.00;99029.81;5039284;28;20040;-56
2022/01/21 01:57:52;;;;;;;9.93;2.60;;;;;;;4.02;100.00;99027.72;5039477;28;20032;-55
2022/01/21 02:00:18;;;;;;;13.35;3.22;;;;;;;4.29;100.00;99036.38;5038977;28;20079;-56
2022/01/21 02:02:43;;;;;;;13.18;3.05;;;;;;;3.82;100.00;99024.25;5039702;28;20541;-57
2022/01/21 02:05:09;;;;;;;12.75;2.83;;;;;;;3.33;100.00;99026.66;5039042;28;20481;-56
2022/01/21 02:07:34;;;;;;;12.68;3.00;;;;;;;2.27;100.00;99029.41;5038898;28;20017;-55
2022/01/21 02:10:00;;;;;;;15.93;3.08;;;;;;;2.55;100.00;99024.47;5039129;28;20029;-55
2022/01/21 02:12:25;;;;;;;13.35;2.88;;;;;;;2.22;100.00;99025.91;5020771;28;20198;-57
2022/01/21 02:14:53;;;;;;;10.93;2.55;;;;;;;3.22;100.00;99031.78;5039564;28;20082;-55
2022/01/21 02:22:38;;;;;;;13.15;2.83;;;;;;;3.23;100.00;99033.50;5038128;28;21152;-56
2022/01/21 02:25:20;;;;;;;12.18;3.00;;;;;;;2.81;100.00;99025.53;5037838;28;20020;-58
2022/01/21 02:27:59;;;;;;;12.25;2.63;;;;;;;2.03;100.00;99023.16;5038619;28;20036;-57
2022/01/21 02:30:26;;;;;;;15.68;3.28;;;;;;;3.47;100.00;99022.41;5037545;28;20044;-56
2022/01/21 02:32:54;;;;;;;12.50;2.75;;;;;;;2.48;100.00;99027.00;5038717;28;20025;-56
2022/01/21 02:35:20;;;;;;;15.02;2.97;;;;;;;4.03;100.00;99044.97;5038334;28;20126;-57
2022/01/21 02:37:46;;;;;;;10.25;2.75;;;;;;;3.40;100.00;99042.19;5036877;28;20848;-55
2022/01/21 02:40:13;;;;;;;13.30;2.80;;;;;;;2.62;100.00;99045.13;5038529;28;20904;-56
2022/01/21 02:42:38;;;;;;;11.98;2.63;;;;;;;2.24;100.00;99053.41;5038218;28;20115;-55
2022/01/21 02:45:06;;;;;;;12.52;2.53;;;;;;;2.41;100.00;99063.88;5037826;28;20032;-56
2022/01/21 02:47:32;;;;;;;15.52;2.85;;;;;;;1.49;100.00;99063.75;5037282;28;20047;-57
2022/01/21 02:49:57;;;;;;;12.70;2.85;;;;;;;2.55;100.00;99058.81;5037761;28;20029;-55
2022/01/21 02:52:26;;;;;;;15.13;2.58;;;;;;;1.71;100.00;99064.00;5037451;28;20182;-55
2022/01/21 02:54:52;;;;;;;15.32;2.78;;;;;;;1.32;100.00;99068.69;5036879;28;20109;-57
2022/01/21 02:57:17;;;;;;;15.40;2.67;;;;;;;1.12;100.00;99064.94;5037307;28;20471;-56
2022/01/21 02:59:43;;;;;;;9.95;2.38;;;;;;;1.42;100.00;99069.66;5037952;28;20581;-55
2022/01/21 03:02:09;;;;;;;12.20;2.63;;;;;;;1.63;100.00;99057.91;5019529;28;20064;-56
2022/01/21 03:07:03;;;;;;;17.63;3.05;;;;;;;0.92;100.00;99073.25;5038109;28;20293;-55
2022/01/21 03:09:28;;;;;;;18.92;3.22;;;;;;;1.16;100.00;99069.31;5038408;28;20056;-57
2022/01/21 03:11:54;;;;;;;13.10;2.50;;;;;;;1.38;100.00;99082.44;5037826;28;20083;-56
2022/01/21 03:14:19;;;;;;;13.35;2.58;;;;;;;1.59;100.00;99077.56;5038388;28;20524;-55
2022/01/21 03:16:45;;;;;;;14.82;2.75;;;;;;;0.89;100.00;99078.34;5038017;28;20040;-56
2022/01/21 03:19:10;;;;;;;15.32;2.92;;;;;;;1.44;100.00;99083.38;5037935;28;20074;-56
2022/01/21 03:21:36;;;;;;;16.08;2.92;;;;;;;1.07;100.00;99076.91;5037529;28;20118;-56
2022/01/21 03:24:02;;;;;;;16.73;2.90;;;;;;;0.83;100.00;99078.25;5037828;28;20024;-55
2022/01/21 03:26:28;;;;;;;17.00;2.92;;;;;;;1.31;100.00;99087.50;5037225;28;20036;-55
2022/01/21 03:28:57;;;;;;;16.25;3.05;;;;;;;1.62;100.00;99087.91;5038156;28;20086;-56
2022/01/21 03:31:23;;;;;;;14.52;3.03;;;;;;;1.62;100.00;99095.63;5037225;28;20561;-54
2022/01/21 03:33:49;;;;;;;13.98;2.97;;;;;;;1.78;100.00;99086.38;5038115;28;20021;-57
2022/01/21 03:36:15;;;;;;;13.07;3.03;;;;;;;1.68;100.00;99085.41;5037206;28;20153;-56
2022/01/21 03:38:41;;;;;;;15.63;2.97;;;;;;;1.67;100.00;99085.38;5037081;28;20028;-55
2022/01/21 03:41:06;;;;;;;14.35;3.08;;;;;;;1.52;100.00;99084.34;5036946;28;20037;-56
2022/01/21 03:43:32;;;;;;;16.05;3.10;;;;;;;1.45;100.00;99084.25;5037875;28;21037;-57
2022/01/21 03:45:58;;;;;;;12.52;2.70;;;;;;;1.29;100.00;99089.19;5037272;28;20032;-55
2022/01/21 03:48:24;;;;;;;13.32;2.70;;;;;;;1.15;100.00;99090.69;5034972;28;20032;-57
2022/01/21 03:50:50;;;;;;;14.20;2.97;;;;;;;0.57;100.00;99104.38;5035140;28;20041;-56
2022/01/21 03:53:16;;;;;;;14.60;2.55;;;;;;;0.77;100.00;99103.81;5035507;28;20064;-55
2022/01/21 03:55:42;;;;;;;14.40;2.90;;;;;;;0.93;100.00;99103.22;5036774;28;20101;-55
2022/01/21 03:58:10;;;;;;;15.73;2.80;;;;;;;1.37;100.00;99096.16;5036900;28;20033;-56
2022/01/21 04:00:53;;;;;;;13.40;3.08;;;;;;;1.70;100.00;99095.72;5036344;28;20102;-56
2022/01/21 04:03:19;;;;;;;12.73;2.88;;;;;;;2.12;100.00;99100.47;5036990;28;20041;-55
2022/01/21 04:05:44;;;;;;;13.00;2.95;;;;;;;1.62;100.00;99087.91;5036165;28;20115;-55
2022/01/21 04:08:11;;;;;;;13.25;2.83;;;;;;;1.56;100.00;99092.94;5036312;28;20025;-56
2022/01/21 04:10:41;;;;;;;12.27;2.80;;;;;;;1.10;100.00;99102.63;5036891;28;20631;-56
2022/01/21 04:13:13;;;;;;;15.68;3.17;;;;;;;1.25;100.00;99104.53;5037252;28;20067;-57
2022/01/21 04:15:38;;;;;;;;;;;;;;;1.08;100.00;99119.72;5037415;28;20032;-55
2022/01/21 04:18:04;;;;;;;14.55;2.88;;;;;;;1.08;100.00;99114.59;5036690;28;19916;-55
2022/01/21 04:20:29;;;;;;;15.13;3.40;;;;;;;0.85;100.00;99109.97;5036360;28;20044;-55
2022/01/21 04:22:54;;;;;;;12.20;2.70;;;;;;;1.37;100.00;99109.00;5037024;28;20033;-56
2022/01/21 04:25:20;;;;;;;12.23;2.65;;;;;;;1.31;100.00;99113.22;5036705;28;20036;-57
2022/01/21 04:27:46;;;;;;;15.45;2.80;;;;;;;1.11;100.00;99114.63;5037096;28;20037;-57
2022/01/21 04:30:12;;;;;;;15.45;2.83;;;;;;;0.65;100.00;99119.06;5036490;28;20025;-58
2022/01/21 04:32:37;;;;;;;22.02;3.47;;;;;;;0.01;100.00;99116.19;5036861;28;20174;-55
2022/01/21 04:35:03;;;;;;;19.70;3.50;;;;;;;-0.03;100.00;99133.22;5036191;28;20039;-55
2022/01/21 04:37:28;;;;;;;18.92;3.13;;;;;;;-0.40;100.00;99135.91;5037188;28;20017;-56
2022/01/21 04:47:53;;;;;;;18.73;3.20;;;;;;;-0.09;100.00;99143.34;5036755;28;20032;-57
2022/01/21 04:50:18;;;;;;;16.30;3.40;;;;;;;-0.24;100.00;99137.09;5035943;28;20032;-57
2022/01/21 04:52:44;;;;;;;17.02;3.35;;;;;;;-0.33;100.00;99138.59;5036932;28;20094;-57
2022/01/21 04:55:09;;;;;;;16.13;3.47;;;;;;;-0.33;100.00;99144.59;5036408;28;21111;-57
2022/01/21 04:57:35;;;;;;;18.80;3.40;;;;;;;-0.67;100.00;99151.53;5036535;28;20485;-55
2022/01/21 05:00:00;;;;;;;15.00;3.17;;;;;;;-0.71;100.00;99152.31;5036840;28;20867;-57
2022/01/21 05:02:27;;;;;;;37.28;4.03;;;;;;;-0.83;100.00;99149.47;5035732;28;20045;-57
2022/01/21 05:04:53;;;;;;;16.92;3.38;;;;;;;-0.78;100.00;99153.00;5037108;28;20043;-56
2022/01/21 05:07:22;;;;;;;19.98;3.75;;;;;;;-0.84;100.00;99158.00;5035895;28;20546;-56
2022/01/21 05:09:48;;;;;;;17.20;3.42;;;;;;;-1.13;100.00;99163.28;5036782;28;20094;-56
2022/01/21 05:12:19;;;;;;;17.58;4.00;;;;;;;-1.26;100.00;99176.63;5035861;28;20129;-57
2022/01/21 05:17:23;;;;;;;13.27;3.15;;;;;;;-1.22;100.00;99176.72;5035766;28;20029;-57
2022/01/21 05:19:48;;;;;;;22.55;4.05;;;;;;;-1.07;100.00;99183.91;5038573;28;20025;-56
2022/01/21 05:22:14;;;;;;;19.95;3.67;;;;;;;-1.18;100.00;99185.34;5039633;28;20067;-55
2022/01/21 05:24:39;;;;;;;17.90;3.15;;;;;;;-1.11;100.00;99189.78;5040760;28;20052;-56
2022/01/21 05:27:06;;;;;;;23.90;3.83;;;;;;;-1.26;100.00;99187.72;5039801;28;20072;-56
2022/01/21 05:29:33;;;;;;;21.90;3.90;;;;;;;-1.22;100.00;99188.66;5040692;28;20123;-57
2022/01/21 05:32:04;;;;;;;21.65;4.22;;;;;;;-1.25;100.00;99193.69;5039456;28;20538;-56
2022/01/21 05:34:29;;;;;;;15.98;3.28;;;;;;;-1.21;100.00;99196.38;5040656;28;20029;-57
2022/01/21 05:36:55;;;;;;;15.48;2.92;;;;;;;-0.93;100.00;99196.19;5040009;28;20033;-56
2022/01/21 05:39:21;;;;;;;22.27;4.07;;;;;;;-1.05;100.00;99202.75;5040102;28;20029;-57
2022/01/21 05:41:49;;;;;;;21.00;4.00;;;;;;;-0.89;100.00;99200.56;5039317;28;20572;-59
2022/01/21 05:46:23;;;;;;;19.77;3.45;;;;;;;-0.81;100.00;99196.47;5039999;28;20093;-56
2022/01/21 05:47:06;;;;;;;19.80;3.72;;;;;;;-0.68;100.00;99198.53;5039652;28;20080;-58
2022/01/21 05:49:33;;;;;;;19.15;3.60;;;;;;;-0.51;100.00;99196.34;5040563;28;20025;-57
2022/01/21 05:52:05;;;;;;;16.17;3.45;;;;;;;-0.51;100.00;99192.91;5039803;28;20044;-57
2022/01/21 05:54:31;;;;;;;18.90;3.35;;;;;;;-0.52;100.00;99188.59;5040438;28;20048;-58
2022/01/21 05:56:56;;;;;;;19.75;3.80;;;;;;;-0.52;100.00;99191.16;5040115;28;20064;-58
2022/01/21 05:59:22;;;;;;;23.20;4.32;;;;;;;-0.71;100.00;99188.19;5040303;28;20068;-57
2022/01/21 06:01:47;;;;;;;25.92;5.20;;;;;;;-0.90;100.00;99191.13;5031343;28;20067;-57
2022/01/21 06:04:13;;;;;;;16.65;3.67;;;;;;;-1.11;100.00;99194.91;5039412;28;20028;-59
2022/01/21 06:06:38;;;;;;;18.80;3.90;;;;;;;-1.01;100.00;99196.00;5039418;28;20044;-58
2022/01/21 06:09:04;;;;;;;14.10;2.92;;;;;;;-0.81;100.00;99201.59;5043060;28;20020;-57
2022/01/21 06:11:30;;;;;;;15.63;3.13;;;;;;;-0.72;100.00;99206.09;5031468;28;20028;-57
2022/01/21 06:13:55;;;;;;;15.27;3.33;;;;;;;-0.76;100.00;99214.53;5042649;28;20033;-58
2022/01/21 06:16:21;;;;;;;18.85;4.13;;;;;;;-0.67;100.00;99220.72;5042233;28;20755;-58
2022/01/21 06:18:46;;;;;;;24.20;4.82;;;;;;;-1.18;100.00;99222.06;5041079;28;20056;-60
2022/01/21 06:21:12;;;;;;;18.88;3.60;;;;;;;-0.73;100.00;99217.19;5042269;28;20091;-59
2022/01/21 06:23:37;;;;;;;12.38;2.83;;;;;;;-0.30;100.00;99210.44;5042532;28;20024;-58
2022/01/21 06:26:03;;;;;;;19.98;4.75;;;;;;;-0.64;100.00;99225.09;5041531;28;20120;-57
2022/01/21 06:28:28;;;;;;;16.50;3.88;;;;;;;-0.88;100.00;99227.91;5041760;28;20021;-58
2022/01/21 06:30:54;;;;;;;18.40;5.13;;;;;;;-1.99;100.00;99227.53;5041423;28;20391;-57
2022/01/21 06:33:22;;;;;;;26.05;5.60;;;;;;;-2.69;100.00;99237.34;5042315;28;20544;-57
2022/01/21 06:35:49;;;;;;;21.13;5.45;;;;;;;-3.19;100.00;99234.03;5041708;28;20065;-57
2022/01/21 06:38:15;;;;;;;24.92;5.45;;;;;;;-2.43;100.00;99237.31;5041766;28;20023;-58
2022/01/21 06:40:41;;;;;;;24.85;5.45;;;;;;;-2.09;100.00;99235.78;5041732;28;20037;-57
2022/01/21 06:43:06;;;;;;;23.20;5.15;;;;;;;-2.14;100.00;99236.47;5042079;28;20029;-58
2022/01/21 06:45:32;;;;;;;28.35;5.47;;;;;;;-2.35;100.00;99248.63;5041828;28;20506;-57
2022/01/21 06:48:02;;;;;;;27.13;5.50;;;;;;;-2.39;100.00;99246.78;5041762;28;20036;-57
2022/01/21 06:50:29;;;;;;;27.25;5.57;;;;;;;-2.37;100.00;99245.13;5041305;28;20187;-57
2022/01/21 06:52:55;;;;;;;24.30;4.88;;;;;;;-1.72;100.00;99247.06;5042230;28;20032;-58
2022/01/21 06:55:21;;;;;;;25.55;4.28;;;;;;;0.92;100.00;99252.19;5041511;28;20021;-59
2022/01/21 06:57:46;;;;;;;25.73;4.68;;;;;;;2.01;100.00;99264.22;5042233;28;20033;-57
2022/01/21 07:00:16;;;;;;;16.65;3.97;;;;;;;0.08;100.00;99254.03;5041583;28;20075;-58
2022/01/21 07:02:42;;;;;;;15.48;4.80;;;;;;;0.33;100.00;99255.38;5041168;28;20090;-57
2022/01/21 07:05:07;;;;;;;24.30;5.63;;;;;;;-1.33;100.00;99246.41;5040120;28;20025;-58
2022/01/21 07:07:33;;;;;;;17.85;4.68;;;;;;;-1.56;100.00;99244.09;5042107;28;20029;-57
2022/01/21 07:10:00;;;;;;;27.10;6.18;;;;;;;-2.99;100.00;99243.22;5041561;28;20403;-58
2022/01/21 07:12:26;;;;;;;24.58;5.97;;;;;;;-2.21;100.00;99251.59;5040868;28;20037;-59
2022/01/21 07:14:52;;;;;;;17.00;5.10;;;;;;;-2.29;100.00;99248.81;5039565;28;20029;-57
2022/01/21 07:17:17;;;;;;;23.45;5.47;;;;;;;-2.06;100.00;99253.75;5040919;28;20040;-58
2022/01/21 07:19:43;;;;;;;17.38;5.20;;;;;;;-2.14;100.00;99254.38;5041833;28;20033;-57
2022/01/21 07:22:08;;;;;;;29.90;5.90;;;;;;;-1.83;100.00;99245.06;5040923;28;20036;-59
2022/01/21 07:24:33;;;;;;;18.38;4.05;;;;;;;-1.71;100.00;99248.78;5041255;28;20112;-57
2022/01/21 07:26:59;;;;;;;24.95;5.40;;;;;;;-1.66;100.00;99247.22;5041219;28;20108;-58
2022/01/21 07:29:24;;;;;;;26.98;6.10;;;;;;;-1.08;100.00;99241.09;5041267;28;20028;-59
2022/01/21 07:31:53;;;;;;;25.88;5.93;;;;;;;-0.93;100.00;99237.19;5040613;28;20065;-57
2022/01/21 07:34:19;;;;;;;24.38;5.72;;;;;;;-0.33;100.00;99238.56;5041071;28;20505;-58
2022/01/21 07:36:44;;;;;;;756.70;37.88;;;;;;;0.18;100.00;99236.28;5040262;28;20549;-58
2022/01/21 07:39:10;;;;;;;1999.90;143.68;;;;;;;0.98;100.00;99248.91;5039645;28;20056;-58
2022/01/21 07:41:35;;;;;;;1999.90;406.83;;;;;;;1.12;100.00;99244.84;5038251;28;20040;-57
2022/01/21 07:44:01;;;;;;;1999.90;463.75;;;;;;;1.63;100.00;99248.22;5041252;28;20578;-55
2022/01/21 07:46:26;;;;;;;1999.90;501.48;;;;;;;1.34;100.00;99248.63;5039625;28;20090;-58
2022/01/21 07:48:52;;;;;;;1999.90;484.95;;;;;;;2.04;100.00;99247.94;5022282;28;20021;-58
2022/01/21 07:51:17;;;;;;;1999.90;244.35;;;;;;;2.56;100.00;99247.72;5038018;28;20037;-58
2022/01/21 07:53:42;;;;;;;672.35;36.63;;;;;;;2.55;100.00;99248.56;5040408;28;20590;-57
2022/01/21 07:56:08;;;;;;;22.20;6.97;;;;;;;2.11;100.00;99242.91;5039519;28;20041;-57
2022/01/21 07:58:33;;;;;;;21.35;6.40;;;;;;;1.81;100.00;99242.50;5039677;28;20753;-60
2022/01/21 08:00:58;;;;;;;22.15;6.10;;;;;;;0.10;100.00;99237.81;5039572;28;20063;-58
2022/01/21 08:03:24;;;;;;;22.17;6.38;;;;;;;0.09;100.00;99233.53;5040375;28;20037;-58
2022/01/21 08:05:51;;;;;;;23.90;6.72;;;;;;;-0.01;100.00;99231.59;5039853;28;20037;-56
2022/01/21 08:08:16;;;;;;;23.55;6.30;;;;;;;-0.46;100.00;99235.75;5040012;28;20025;-59
2022/01/21 08:10:42;;;;;;;26.35;7.57;;;;;;;0.35;100.00;99228.03;5039885;28;20035;-57
2022/01/21 08:13:07;;;;;;;26.30;6.45;;;;;;;1.13;100.00;99233.75;5040099;28;20040;-57
2022/01/21 08:15:33;;;;;;;32.47;7.80;;;;;;;0.78;100.00;99228.84;5039623;28;20139;-57
2022/01/21 08:17:58;;;;;;;27.25;6.50;;;;;;;0.98;100.00;99243.75;5038857;28;20024;-57
2022/01/21 08:20:24;;;;;;;24.70;6.60;;;;;;;1.24;100.00;99234.78;5039999;28;20122;-58
2022/01/21 08:22:49;;;;;;;28.27;6.00;;;;;;;1.39;100.00;99231.56;5040248;28;20052;-58
2022/01/21 08:25:14;;;;;;;26.58;5.97;;;;;;;1.74;100.00;99239.81;5040089;28;20031;-60
2022/01/21 08:27:40;;;;;;;22.45;6.18;;;;;;;1.24;100.00;99233.91;5040158;28;20132;-58
2022/01/21 08:30:06;;;;;;;23.38;7.05;;;;;;;1.47;100.00;99235.16;5040217;28;20047;-59
2022/01/21 08:32:32;;;;;;;22.90;6.60;;;;;;;1.29;100.00;99232.28;5037946;28;20078;-58
2022/01/21 08:34:58;;;;;;;22.50;5.22;;;;;;;1.08;100.00;99222.50;5040325;28;20020;-59
2022/01/21 08:37:23;;;;;;;26.60;6.38;;;;;;;1.13;100.00;99228.59;5039616;28;20791;-58
2022/01/21 08:39:50;;;;;;;20.05;5.93;;;;;;;1.39;100.00;99228.16;5040088;28;20211;-60
2022/01/21 08:42:16;;;;;;;22.50;6.22;;;;;;;0.91;100.00;99232.50;5039191;28;20029;-57
2022/01/21 08:44:41;;;;;;;24.25;6.40;;;;;;;0.62;100.00;99231.97;5040152;28;20145;-58
2022/01/21 08:47:06;;;;;;;22.52;6.03;;;;;;;0.80;100.00;99237.44;5039364;28;20794;-58
2022/01/21 08:49:32;;;;;;;20.23;6.03;;;;;;;1.79;100.00;99239.88;5040043;28;20945;-58
2022/01/21 08:51:58;;;;;;;20.50;6.00;;;;;;;1.79;100.00;99242.47;5039281;28;20050;-58
2022/01/21 08:54:25;;;;;;;16.67;5.60;;;;;;;1.86;100.00;99244.28;5039830;28;20033;-59
2022/01/21 08:56:53;;;;;;;17.70;5.82;;;;;;;1.83;100.00;99249.38;5052881;28;20037;-57
2022/01/21 08:59:19;;;;;;;19.35;5.70;;;;;;;1.65;100.00;99247.38;5039367;28;20923;-57
2022/01/21 09:01:46;;;;;;;174.05;13.32;;;;;;;2.11;100.00;99232.63;5038645;28;20041;-57
2022/01/21 09:04:11;;;;;;;218.57;17.00;;;;;;;2.15;100.00;99245.50;5039993;28;20082;-58
2022/01/21 09:06:37;;;;;;;171.82;14.35;;;;;;;2.78;100.00;99249.69;5039231;28;20037;-58
2022/01/21 09:09:03;;;;;;;42.17;7.38;;;;;;;2.56;100.00;99258.03;5040117;28;20039;-57
2022/01/21 09:11:29;;;;;;;24.00;6.13;;;;;;;3.38;100.00;99255.41;5036932;28;20651;-57
2022/01/21 09:13:55;;;;;;;86.90;11.55;;;;;;;4.42;100.00;99249.97;5038854;28;20470;-59
2022/01/21 09:16:20;;;;;;;96.18;11.50;;;;;;;4.76;100.00;99247.50;5036398;28;20556;-60
2022/01/21 09:18:49;;;;;;;27.63;7.35;;;;;;;4.40;100.00;99246.50;5038627;28;20035;-58
2022/01/21 09:21:16;;;;;;;546.30;34.15;;;;;;;5.45;100.00;99257.03;5038675;28;20517;-59
2022/01/21 09:23:42;;;;;;;25.60;6.65;;;;;;;4.78;100.00;99253.53;5039551;28;20025;-60
2022/01/21 09:26:09;;;;;;;40.63;7.97;;;;;;;4.17;100.00;99250.72;5039427;28;20048;-57
2022/01/21 09:28:35;;;;;;;20.80;5.85;;;;;;;4.29;100.00;99257.66;5039882;28;20106;-59
2022/01/21 09:31:01;;;;;;;539.38;28.75;;;;;;;4.26;100.00;99258.50;5039751;28;20037;-57
2022/01/21 09:33:26;;;;;;;23.17;6.32;;;;;;;3.79;100.00;99257.41;5039894;28;20033;-60
2022/01/21 09:35:52;;;;;;;644.42;31.38;;;;;;;3.93;100.00;99269.53;5039273;28;20043;-59
2022/01/21 09:38:18;;;;;;;22.10;6.90;;;;;;;4.38;100.00;99271.47;5039538;28;20344;-59
2022/01/21 09:40:46;;;;;;;35.90;6.60;;;;;;;3.49;100.00;99270.94;5039189;28;20873;-59
2022/01/21 09:43:11;;;;;;;23.02;6.47;;;;;;;3.56;100.00;99269.28;5039533;28;20033;-59
2022/01/21 09:45:38;;;;;;;94.22;10.73;;;;;;;3.94;100.00;99271.25;5037635;28;20045;-59
2022/01/21 09:48:06;;;;;;;44.70;7.97;;;;;;;4.42;100.00;99277.53;5037595;28;20329;-60
2022/01/21 09:50:32;;;;;;;25.55;7.32;;;;;;;4.67;100.00;99264.69;5037012;28;20041;-59
2022/01/21 09:52:58;;;;;;;20.48;6.30;;;;;;;4.22;100.00;99257.63;5039494;28;20500;-61
2022/01/21 09:55:23;;;;;;;26.42;9.88;;;;;;;4.00;100.00;99266.97;5038655;28;20542;-58
2022/01/21 09:57:54;;;;;;;24.85;8.75;;;;;;;3.95;100.00;99267.81;5038858;28;20020;-57
2022/01/21 10:00:22;;;;;;;20.50;6.47;;;;;;;4.98;100.00;99273.38;5038165;28;20025;-60
2022/01/21 10:02:50;;;;;;;16.85;5.05;;;;;;;4.60;100.00;99263.81;5038756;28;20027;-57
2022/01/21 10:05:15;;;;;;;21.00;6.40;;;;;;;4.80;100.00;99251.81;5040985;28;20085;-60
2022/01/21 10:07:44;;;;;;;22.92;7.07;;;;;;;3.63;100.00;99255.56;5042476;28;20681;-59
2022/01/21 10:10:09;;;;;;;20.98;6.75;;;;;;;5.63;100.00;99269.13;5042560;28;20036;-58
2022/01/21 10:12:38;;;;;;;22.88;6.72;;;;;;;4.29;100.00;99253.38;5043208;28;20025;-58
2022/01/21 10:15:04;;;;;;;17.92;5.70;;;;;;;4.64;100.00;99255.22;5042218;28;20433;-58
2022/01/21 10:17:30;;;;;;;21.25;6.22;;;;;;;5.19;100.00;99260.47;5039740;28;20025;-58
2022/01/21 10:20:11;;;;;;;23.63;6.78;;;;;;;4.50;100.00;99251.72;5042014;28;20028;-59
2022/01/21 10:22:37;;;;;;;16.13;6.40;;;;;;;4.69;100.00;99253.50;5042169;28;20051;-60
2022/01/21 10:25:05;;;;;;;15.15;5.95;;;;;;;5.03;100.00;99256.16;5042709;28;20041;-60
2022/01/21 10:27:35;;;;;;;20.52;7.10;;;;;;;4.14;100.00;99250.72;5042049;28;20124;-58
2022/01/21 10:30:02;;;;;;;17.17;5.95;;;;;;;5.08;100.00;99246.69;5042275;28;20017;-58
2022/01/21 10:32:34;;;;;;;19.33;6.15;;;;;;;4.92;100.00;99239.75;5041588;28;20231;-59
2022/01/21 10:35:00;;;;;;;17.30;6.38;;;;;;;4.89;100.00;99227.72;5042781;28;20064;-59
2022/01/21 10:37:36;;;;;;;17.23;5.82;;;;;;;4.70;100.00;99226.78;5041833;28;20037;-59
2022/01/21 10:40:04;;;;;;;17.02;5.65;;;;;;;5.28;100.00;99227.75;5042036;28;20499;-58
2022/01/21 10:42:31;;;;;;;18.75;6.20;;;;;;;5.09;100.00;99225.16;5041482;28;20510;-59
2022/01/21 10:44:58;;;;;;;19.73;6.80;;;;;;;5.59;100.00;99221.66;5042216;28;20151;-60
2022/01/21 10:47:27;;;;;;;14.45;4.63;;;;;;;6.07;100.00;99216.41;5041114;28;20106;-60
2022/01/21 10:50:06;;;;;;;19.90;6.10;;;;;;;4.98;100.00;99209.63;5041993;28;20546;-59
2022/01/21 10:52:37;;;;;;;17.67;6.13;;;;;;;5.58;100.00;99213.91;5041680;28;20161;-59
2022/01/21 10:55:05;;;;;;;11.70;4.05;;;;;;;6.33;100.00;99213.72;5041315;28;20531;-58
2022/01/21 10:57:32;;;;;;;16.65;5.70;;;;;;;5.86;100.00;99217.28;5041995;28;20037;-59
2022/01/21 11:00:07;;;;;;;18.52;6.60;;;;;;;4.92;100.00;99208.75;5041699;28;20021;-58
2022/01/21 11:02:36;;;;;;;14.50;5.43;;;;;;;6.13;100.00;99218.13;5041189;28;20097;-58
2022/01/21 11:05:15;;;;;;;15.20;5.05;;;;;;;7.07;100.00;99212.41;5041715;28;20044;-58
2022/01/21 11:07:54;;;;;;;16.77;5.95;;;;;;;5.46;100.00;99207.03;5041236;28;20045;-59
2022/01/21 11:10:32;;;;;;;19.10;6.15;;;;;;;6.09;100.00;99195.69;5041300;28;20123;-58
2022/01/21 11:12:58;;;;;;;15.73;5.70;;;;;;;5.69;100.00;99195.78;5041781;28;20809;-61
2022/01/21 11:15:23;;;;;;;14.68;5.72;;;;;;;5.39;100.00;99189.78;5040892;28;20044;-59
2022/01/21 11:17:58;;;;;;;15.02;5.13;;;;;;;5.87;100.00;99193.13;5041262;28;20028;-58
2022/01/21 11:20:31;;;;;;;16.08;5.43;;;;;;;6.49;100.00;99198.09;5040944;28;20993;-58
2022/01/21 11:23:00;;;;;;;15.90;5.22;;;;;;;6.43;100.00;99187.75;5041397;28;20013;-58
2022/01/21 11:25:48;;;;;;;14.02;4.40;;;;;;;6.66;100.00;99183.31;5041093;28;20601;-58
2022/01/21 11:28:16;;;;;;;12.85;5.32;;;;;;;6.31;100.00;99184.34;5041293;28;20089;-58
2022/01/21 11:30:42;;;;;;;20.10;6.28;;;;;;;4.15;100.00;99178.41;5039248;28;20033;-60
2022/01/21 11:33:08;;;;;;;17.38;5.47;;;;;;;7.48;100.00;99190.44;5041610;28;20790;-58
2022/01/21 11:35:34;;;;;;;13.52;5.25;;;;;;;6.02;100.00;99181.03;5040968;28;20033;-59
2022/01/21 11:38:04;;;;;;;16.95;5.80;;;;;;;4.37;100.00;99178.47;5040995;28;20104;-61
2022/01/21 11:40:30;;;;;;;16.85;5.38;;;;;;;4.89;100.00;99180.28;5040017;28;20709;-59
2022/01/21 11:42:57;;;;;;;16.00;5.60;;;;;;;5.11;100.00;99178.56;5041122;28;20040;-59
2022/01/21 11:48:49;;;;;;;14.45;5.32;;;;;;;5.87;100.00;99172.41;5041317;28;20024;-62
2022/01/21 11:50:50;;;;;;;15.45;5.80;;;;;;;4.96;100.00;99166.50;5039970;28;20033;-60
2022/01/21 11:54:11;;;;;;;12.02;4.03;;;;;;;9.73;100.00;99180.41;5040698;28;20025;-62
2022/01/21 11:57:00;;;;;;;11.65;4.38;;;;;;;7.61;100.00;99152.22;4997411;28;20141;-58
2022/01/21 11:59:34;;;;;;;10.52;4.30;;;;;;;6.78;100.00;99159.00;5038606;28;20043;-59
2022/01/21 12:02:18;;;;;;;14.02;4.95;;;;;;;6.19;100.00;99142.94;5039641;28;20045;-60
2022/01/21 12:04:54;;;;;;;13.05;4.55;;;;;;;6.51;100.00;99144.53;5040714;28;20028;-61
2022/01/21 12:07:41;;;;;;;15.90;5.22;;;;;;;4.93;100.00;99146.69;5040139;28;20149;-61
2022/01/21 12:10:22;;;;;;;14.68;4.85;;;;;;;5.68;100.00;99148.31;5039283;28;20029;-59
2022/01/21 12:12:55;;;;;;;18.83;5.47;;;;;;;5.08;100.00;99152.72;5040574;28;20710;-59
2022/01/21 12:20:44;;;;;;;14.50;5.20;;;;;;;4.67;100.00;99145.78;5039970;28;20087;-59